Weather observations for the past three days for
Canby Airfield
Imperial (Metric)
Date Time (cdt) Wind (mph) Vis. (mi.) Weather Sky Cond. Temperature (ºF) Relative Humidity Wind Chill (°F) Heat Index (°F) Pressure Precipitation (in)
Air Dwpt 6 hour altimeter (in) sea level (mb) 1 hr 3 hr 6 hr
Max. Min.
09 00:15 SW 8 10.00 Fair CLR 53.8 31.3 42% 29.65 0.0
08 23:55 SW 8 10.00 Fair CLR 54.3 30.2 40% 29.66 0.0
08 23:35 SW 6 10.00 Fair CLR 54.3 30.7 41% 29.66 0.0
08 23:15 SW 6 10.00 Fair CLR 53.2 31.1 43% 29.67 0.0
08 22:55 SW 5 10.00 Fair CLR 54.1 31.5 42% 29.68 0.0
08 22:35 SW 6 10.00 Fair CLR 53.8 31.5 43% 29.69 0.0
08 22:15 SW 3 10.00 Fair CLR 51.6 31.8 47% 29.69 0.0
08 21:55 SW 6 10.00 Fair CLR 55.4 29.8 38% 29.7 0.0
08 21:35 W 5 10.00 Fair CLR 56.3 29.5 36% 29.7 0.0
08 21:15 W 3 10.00 Fair CLR 57.9 29.8 34% 29.69 0.0
08 20:55 NW 5 10.00 Fair CLR 59.7 28.9 31% 29.7 0.0
08 20:35 NW 6 10.00 Fair CLR 62.4 29.3 29% 29.69 0.0
08 20:15 NW 8 10.00 Fair CLR 65.7 28 24% 29.69 0.0
08 19:55 NW 9 10.00 Fair CLR 67.1 27.3 22% 29.69 0.0
08 19:35 NW 15 G 21 10.00 Fair CLR 68.2 25.9 20% 29.68 0.0
08 19:15 NW 17 G 24 10.00 Fair CLR 69.3 25.7 19% 29.68 0.0
08 18:55 NW 15 G 24 10.00 Fair CLR 70 24.1 75.2 70 18% 29.67 0.0
08 18:35 NW 22 G 30 10.00 Fair and Breezy CLR 70.7 23.9 17% 29.68 0.0
08 18:15 NW 20 G 32 10.00 Fair CLR 71.1 23.5 17% 29.67 0.0
08 17:55 W 22 G 30 10.00 Fair and Breezy CLR 71.8 23 16% 29.67 0.0
08 17:35 NW 18 G 30 10.00 Fair CLR 71.8 22.8 16% 29.67 0.0
08 17:15 NW 20 G 35 10.00 Fair CLR 72.7 24.1 16% 29.66 0.0
08 16:55 NW 26 G 31 10.00 Partly Cloudy and Windy SCT090 73 27.9 19% 29.66 0.0
08 16:35 NW 21 G 31 10.00 Partly Cloudy and Breezy SCT100 74.3 29.3 19% 29.66 0.0
08 16:15 NW 22 G 33 10.00 Partly Cloudy and Breezy SCT100 73.9 28.6 19% 29.66 0.0
08 15:55 NW 18 G 26 10.00 Partly Cloudy SCT100 74.3 27.5 18% 29.65 0.0
08 15:35 W 18 G 25 10.00 Mostly Cloudy BKN100 73.6 27.9 18% 29.66 0.0
08 15:15 W 20 G 23 10.00 Mostly Cloudy BKN100 72.7 28.2 19% 29.66 0.0
08 14:55 W 12 G 24 10.00 Partly Cloudy SCT100 73 28.4 19% 29.66 0.0
08 14:35 W 18 G 25 10.00 Partly Cloudy SCT100 74.7 28.6 18% 29.67 0.0
08 14:15 NW 20 G 26 10.00 Fair CLR 74.5 27.3 17% 29.67 0.0
08 13:55 W 18 G 28 10.00 Fair CLR 74.3 25 16% 29.68 0.0
08 13:35 NW 20 G 23 10.00 Partly Cloudy SCT110 73.9 24.1 15% 29.68 0.0
08 13:15 W 15 G 22 10.00 Mostly Cloudy SCT100 BKN120 71.8 25.5 18% 29.69 0.0
08 12:55 W 18 G 24 10.00 Mostly Cloudy BKN100 BKN120 70.5 24.4 72.5 51.4 18% 29.7 0.0
08 12:35 NW 14 G 17 10.00 Overcast OVC100 70.9 24.6 18% 29.71 0.0
08 12:15 W 20 G 25 10.00 Overcast SCT090 OVC100 69.8 24.3 18% 29.72 0.0
08 11:55 W 18 G 23 10.00 Overcast SCT090 OVC110 69.1 23.9 18% 29.72 0.0
08 11:35 W 20 G 24 10.00 Partly Cloudy SCT110 71.1 23.4 17% 29.73 0.0
08 11:15 W 10 G 25 10.00 Fair CLR 69.8 22.1 16% 29.73 0.0
08 10:55 W 16 G 23 10.00 Fair CLR 69.1 22.8 17% 29.73 0.0
08 10:35 W 18 G 24 10.00 Fair CLR 68.2 22.3 17% 29.74 0.0
08 10:15 W 14 10.00 Fair CLR 67.1 22.6 18% 29.74 0.0
08 09:55 W 14 G 22 10.00 Fair CLR 65.7 22.8 20% 29.75 0.0
08 09:35 SW 15 G 18 10.00 Fair CLR 64.6 24.4 22% 29.76 0.0
08 09:15 SW 13 10.00 Fair CLR 62.6 25.5 24% 29.76 0.0
08 08:55 W 12 G 17 10.00 Fair CLR 60.8 26.4 27% 29.77 0.0
08 08:35 SW 13 G 18 10.00 Fair CLR 58.3 26.2 29% 29.77 0.0
08 08:15 SW 12 G 20 10.00 Partly Cloudy SCT090 56.8 25.2 30% 29.77 0.0
08 07:55 SW 12 G 16 10.00 Partly Cloudy SCT090 56.1 24.4 29% 29.76 0.0
08 07:35 SW 13 G 18 10.00 Partly Cloudy SCT100 SCT120 52.7 23.5 32% 29.76 0.0
08 07:15 SW 12 G 17 10.00 Mostly Cloudy BKN100 51.8 22.1 31% 29.77 0.0
08 06:55 SW 9 10.00 Overcast OVC100 52.2 21.9 52.2 46.4 31% 29.76 0.0
08 06:35 SW 8 10.00 Overcast OVC100 51.4 22.6 32% 29.77 0.0
08 06:15 SW 10 10.00 Overcast OVC100 52 22.1 31% 29.76 0.0
08 05:55 SW 7 10.00 Overcast OVC100 50.5 23 34% 29.77 0.0
08 05:35 SW 9 10.00 Overcast OVC110 50.2 23.4 35% 29.77 0.0
08 05:15 SW 9 10.00 Partly Cloudy SCT110 49.3 23.7 37% 46 29.77 0.0
08 04:55 SW 7 10.00 Partly Cloudy SCT120 48.2 24.3 39% 46 29.77 0.0
08 04:35 SW 7 10.00 Mostly Cloudy BKN120 47.3 24.3 40% 44 29.77 0.0
08 04:15 SW 6 10.00 Partly Cloudy SCT120 46.6 23.9 41% 44 29.77 0.0
08 03:55 SW 5 10.00 Fair CLR 46.4 24.3 42% 45 29.78 0.0
08 03:35 SW 5 10.00 Fair CLR 46.4 23.5 41% 45 29.78 0.0
08 03:15 SW 3 10.00 Fair CLR 47.5 23.5 39% 29.78 0.0
08 02:55 S 6 10.00 Fair CLR 48.9 21.6 34% 47 29.78 0.0
08 02:35 S 7 10.00 Fair CLR 48.7 22.1 35% 46 29.79 0.0
08 02:15 S 6 10.00 Fair CLR 49.1 22.1 35% 47 29.79 0.0
08 01:55 SW 6 10.00 Fair CLR 47.7 22.5 37% 45 29.8 0.0
08 01:35 S 5 10.00 Fair CLR 46.9 22.5 38% 45 29.8 0.0
08 01:15 S 5 10.00 Fair CLR 47.7 23 38% 46 29.8 0.0
08 00:55 S 6 10.00 Fair CLR 47.3 23.5 62.8 40.5 39% 45 29.81 0.0
08 00:35 SW 6 10.00 Fair CLR 46.8 24.6 42% 44 29.81 0.0
08 00:15 S 6 10.00 Fair CLR 46.2 25 43% 44 29.82 0.0
07 23:55 SW 5 10.00 Fair CLR 43.2 27.9 55% 41 29.82 0.0
07 23:35 W 3 10.00 Fair CLR 43.2 27.1 53% 29.82 0.0
07 23:15 S 5 10.00 Fair CLR 41.4 30.6 66% 39 29.82 0.0
07 22:55 S 3 10.00 Fair CLR 42.1 31.5 66% 29.83 0.0
07 22:35 Calm 10.00 Fair CLR 43.3 29.1 57% 29.83 0.0
07 22:15 Calm 10.00 Fair CLR 45.5 29.7 54% 29.83 0.0
07 21:55 Calm 10.00 Fair CLR 46.9 28.6 49% 29.83 0.0
07 21:35 Calm 10.00 Fair CLR 50.9 22.8 33% 29.83 0.0
07 21:15 Calm 10.00 Fair CLR 52.9 20.5 28% 29.82 0.0
07 20:55 Calm 10.00 Fair CLR 54.9 20.5 26% 29.82 0.0
07 20:35 N 3 10.00 Fair CLR 56.7 19.2 23% 29.82 0.0
07 20:15 N 5 10.00 Fair CLR 58.5 19.4 22% 29.81 0.0
07 19:55 NW 6 10.00 Fair CLR 60.6 18.9 20% 29.8 0.0
07 19:35 NW 7 10.00 Fair CLR 61.7 17.1 18% 29.8 0.0
07 19:15 NW 8 10.00 Fair CLR 62.4 16.7 17% 29.8 0.0
07 18:55 W 10 G 17 10.00 Fair CLR 63 15.8 64.6 57.7 16% 29.81 0.0
07 18:35 N 8 10.00 Fair CLR 63.3 18 17% 29.81 0.0
07 18:15 NW 7 10.00 Fair CLR 63.7 16 16% 29.81 0.0
07 17:55 NW 7 G 21 10.00 Fair CLR 63.5 17.4 17% 29.82 0.0
07 17:35 W 10 10.00 Fair CLR 64 18.1 17% 29.82 0.0
07 17:15 NW 8 G 16 10.00 Fair CLR 63.7 17.6 17% 29.82 0.0
07 16:55 NW 8 10.00 Fair CLR 63.7 18.5 17% 29.82 0.0
07 16:35 W 3 10.00 Fair CLR 63.7 17.2 16% 29.82 0.0
07 16:15 SW 7 10.00 Fair CLR 62.6 16.5 17% 29.83 0.0
07 15:55 NW 12 G 21 10.00 Fair CLR 63.1 15.4 16% 29.83 0.0
07 15:35 NW 14 G 25 10.00 Fair CLR 63.3 14.9 15% 29.84 0.0
07 15:15 NW 13 G 22 10.00 Fair CLR 62.6 14 15% 29.85 0.0
07 14:55 W 10 G 28 10.00 Fair CLR 62.6 15.3 16% 29.85 0.0
07 14:35 SW 12 G 21 10.00 Fair CLR 61.9 14.5 16% 29.85 0.0
07 14:15 SW 14 G 22 10.00 Fair CLR 61.7 17.6 18% 29.85 0.0
07 13:55 W 18 G 26 10.00 Partly Cloudy SCT080 60.8 18.7 19% 29.85 0.0
07 13:35 NW 8 10.00 Partly Cloudy SCT080 58.8 21.9 24% 29.86 0.0
07 13:15 SW 7 10.00 Partly Cloudy SCT080 59 21.4 23% 29.87 0.0
07 12:55 W 8 G 16 10.00 Fair CLR 58.3 20.7 58.5 37.2 23% 29.88 0.0
07 12:35 NW 9 10.00 Fair CLR 57.4 20.5 24% 29.88 0.0
07 12:15 NW 15 G 20 10.00 Fair CLR 57.4 19.9 23% 29.89 0.0
07 11:55 NW 9 10.00 Fair CLR 55.9 21.4 26% 29.89 0.0
07 11:35 NW 3 10.00 Fair CLR 55.8 21.9 27% 29.9 0.0
07 11:15 W 5 10.00 Fair CLR 54.7 23.4 30% 29.9 0.0
07 10:55 Calm 10.00 Fair CLR 53.4 23.5 31% 29.9 0.0
07 10:35 Calm 10.00 Fair CLR 52.9 24.8 34% 29.9 0.0
07 10:15 NE 3 10.00 Fair CLR 52.5 25.3 35% 29.9 0.0
07 09:55 SE 5 10.00 Fair CLR 51.3 27 39% 29.9 0.0
07 09:35 E 6 10.00 Fair CLR 49.8 27.7 42% 48 29.9 0.0
07 09:15 SE 6 10.00 Fair CLR 47.7 27.3 45% 45 29.91 0.0
07 08:55 E 5 10.00 Fair CLR 45.7 27.1 48% 44 29.9 0.0
07 08:35 Calm 10.00 Fair CLR 43.9 27.7 53% 29.9 0.0
07 08:15 Calm 10.00 Fair CLR 42.1 27 55% 29.9 0.0
07 07:55 Calm 10.00 Fair CLR 41.7 26.6 55% 29.9 0.0
07 07:35 E 3 10.00 Fair CLR 39.4 27.5 63% 29.9 0.0
07 07:15 Calm 10.00 Fair CLR 37.8 27.5 67% 29.9 0.0
07 06:55 Calm 10.00 Partly Cloudy SCT090 36.9 27.5 39.9 35.2 69% 29.9 0.0
07 06:35 Calm 10.00 Overcast OVC090 35.4 26.8 71% 29.9 0.0
07 06:15 NE 5 10.00 Overcast OVC090 36.3 25.9 66% 33 29.9 0.0
07 05:55 NE 6 10.00 Overcast SCT065 SCT075 OVC090 37.4 26.1 64% 33 29.9 0.0
07 05:35 SE 3 10.00 Overcast SCT065 BKN075 OVC095 38.3 25.3 60% 29.9 0.0
07 05:15 S 8 10.00 Overcast OVC095 38.5 25.2 59% 33 29.9 0.0
07 04:55 S 6 10.00 Mostly Cloudy SCT055 SCT080 BKN095 38.5 25.2 59% 35 29.91 0.0
07 04:35 SE 6 10.00 Partly Cloudy SCT065 SCT080 SCT090 38.3 25.7 61% 34 29.91 0.0
07 04:15 SE 5 10.00 Partly Cloudy SCT090 38.3 25.2 59% 35 29.92 0.0
07 03:55 S 7 10.00 Mostly Cloudy BKN090 38.5 25.7 60% 34 29.92 0.0
07 03:35 SE 7 10.00 Overcast SCT038 SCT047 OVC090 39.6 25.3 57% 35 29.92 0.0
07 03:15 SE 7 10.00 Overcast SCT042 BKN070 OVC090 39.9 25.5 56% 36 29.92 0.0
07 02:55 S 6 10.00 Overcast SCT049 BKN065 OVC080 39.2 26.2 60% 36 29.93 0.0
07 02:35 S 3 10.00 Overcast SCT050 BKN075 OVC110 39.2 25.7 58% 29.94 0.0
07 02:15 SE 5 10.00 Mostly Cloudy SCT060 SCT090 BKN110 37 25.7 64% 34 29.94 0.0
07 01:55 Calm 10.00 Mostly Cloudy BKN090 BKN110 37.4 25.5 62% 29.95 0.0
07 01:35 SE 5 10.00 Overcast SCT080 OVC090 37.8 25.5 61% 35 29.95 0.0
07 01:15 Calm 10.00 Overcast OVC080 39 25.7 59% 29.97 0.0
07 00:55 E 3 10.00 Overcast OVC090 38.3 26.4 49.8 38.3 62% 29.97 0.0
07 00:35 Calm 10.00 Overcast BKN095 OVC110 38.3 29.3 70% 29.97 0.0
07 00:15 Calm 10.00 Mostly Cloudy BKN110 38.8 25.7 59% 29.97 0.0
06 23:55 Calm 10.00 Overcast OVC110 40.1 23.7 52% 29.97 0.0
06 23:35 Calm 10.00 Overcast OVC110 40.6 25.3 55% 29.98 0.0
06 23:15 Calm 10.00 Overcast OVC095 40.5 26.1 57% 29.98 0.0
06 22:55 Calm 10.00 Overcast OVC095 40.3 27.1 59% 29.99 0.0
06 22:35 Calm 10.00 Overcast OVC095 39.2 30 70% 29.99 0.0
06 22:15 Calm 10.00 Overcast OVC095 41.2 26.6 56% 29.99 0.0
06 21:55 Calm 10.00 Overcast OVC095 41.9 26.4 54% 29.98 0.0
06 21:35 Calm 10.00 Overcast OVC095 41.9 23.2 47% 29.98 0.0
06 21:15 Calm 10.00 Overcast OVC095 42.1 23.2 47% 29.97 0.0
06 20:55 Calm 10.00 Mostly Cloudy BKN095 43.7 23 44% 29.98 0.0
06 20:35 N 3 10.00 Partly Cloudy SCT095 44.2 22.6 42% 29.97 0.0
06 20:15 N 5 10.00 Fair CLR 45.5 22.5 40% 44 29.97 0.0
06 19:55 N 8 10.00 Fair CLR 46.6 22.1 38% 43 29.97 0.0
06 19:35 N 10 10.00 Fair CLR 48.2 22.1 36% 44 29.97 0.0
06 19:15 NW 9 10.00 Fair CLR 49.3 22.8 35% 46 29.97 0.0
06 18:55 N 7 10.00 Fair CLR 50.7 22.5 51.4 46.4 33% 29.98 0.0
06 18:35 NW 7 10.00 Partly Cloudy SCT080 51.1 22.8 33% 29.98 0.0
06 18:15 NW 7 10.00 Mostly Cloudy BKN080 50.2 22.3 33% 29.98 0.0
06 17:55 N 8 10.00 Overcast OVC070 50 22.5 34% 47 29.99 0.0
06 17:35 NW 13 G 17 10.00 Overcast SCT060 OVC070 50.9 22.3 33% 29.99 0.0
06 17:15 N 9 G 16 10.00 Overcast OVC070 50 22.1 33% 47 29.99 0.0
06 16:55 NW 15 G 18 10.00 Mostly Cloudy BKN065 50.2 21.4 32% 30 0.0
06 16:35 W 13 G 18 10.00 Mostly Cloudy BKN070 50.7 21.4 32% 30 0.0
06 16:15 NW 8 10.00 Mostly Cloudy SCT060 BKN070 50 21.6 33% 47 30.01 0.0
06 15:55 NW 15 10.00 Overcast OVC070 50.9 21.7 32% 30.02 0.0
06 15:35 W 13 G 22 10.00 Overcast OVC060 49.8 21.4 33% 45 30.02 0.0
06 15:15 NW 14 G 28 10.00 Overcast OVC060 49.5 21 33% 45 30.03 0.0
06 14:55 NW 10 10.00 Overcast OVC060 48.7 21.6 34% 45 30.03 0.0
06 14:35 NW 14 10.00 Overcast OVC060 48.4 21.2 34% 43 30.04 0.0
06 14:15 NW 15 G 21 10.00 Overcast OVC050 48.9 21 33% 44 30.04 0.0
06 13:55 NW 14 G 18 10.00 Overcast OVC050 47.7 20.8 35% 42 30.04 0.0
06 13:35 NW 12 G 20 10.00 Overcast OVC050 48 20.7 34% 44 30.05 0.0
06 13:15 W 13 G 21 10.00 Overcast OVC050 46.9 21.2 36% 42 30.05 0.0
06 12:55 NW 13 G 17 10.00 Overcast OVC050 47.1 21.7 47.1 37.4 37% 42 30.06 0.0
06 12:35 NW 10 G 16 10.00 Overcast OVC050 45.1 21.9 40% 40 30.07 0.0
06 12:15 NW 14 G 18 10.00 Overcast OVC050 44.8 23.4 43% 39 30.07 0.0
06 11:55 NW 10 G 16 10.00 Overcast OVC048 43.7 23.5 45% 39 30.07 0.0
06 11:35 W 12 G 16 10.00 Overcast OVC048 43 23.2 46% 37 30.08 0.0
06 11:15 NW 12 G 16 10.00 Overcast SCT040 OVC048 42.4 22.8 46% 37 30.08 0.0
06 10:55 NW 8 10.00 Overcast SCT040 OVC048 41.7 23.7 49% 37 30.08 0.0
06 10:35 NW 13 10.00 Overcast SCT041 OVC048 41.9 23.7 49% 36 30.08 0.0
06 10:15 NW 10 10.00 Overcast SCT040 OVC060 41.9 25 51% 36 30.07 0.0
06 09:55 NW 12 G 17 10.00 Overcast SCT037 OVC060 41.7 25.2 52% 36 30.07 0.0
06 09:35 NW 12 G 18 10.00 Overcast OVC060 41.5 24.6 51% 36 30.08 0.0
06 09:15 NW 12 10.00 Overcast SCT041 SCT048 OVC060 41 23 49% 35 30.07 0.0
06 08:55 NW 8 10.00 Overcast BKN043 OVC050 39.7 24.1 54% 35 30.07 0.0
06 08:35 NW 9 10.00 Overcast BKN045 OVC050 39.6 23.7 53% 34 30.07 0.0
06 08:15 W 7 10.00 Overcast OVC050 39.2 25.2 57% 35 30.07 0.0
06 07:55 W 7 10.00 Overcast OVC050 38.7 25.3 59% 34 30.06 0.0
06 07:35 W 6 10.00 Overcast OVC050 38.3 25.3 60% 34 30.06 0.0
06 07:15 W 6 10.00 Overcast OVC055 37.6 26.1 63% 34 30.05 0.0
06 06:55 W 7 10.00 Overcast OVC055 37 26.1 39.6 34.7 65% 32 30.04 0.0
06 06:35 W 5 10.00 Overcast OVC055 36.5 26.6 67% 33 30.03 0.0
06 06:15 W 5 10.00 Overcast OVC055 36.5 26.4 67% 33 30.03 0.0
06 05:55 W 3 10.00 Overcast OVC065 36 26.2 68% 30.02 0.0
06 05:35 W 3 10.00 Overcast OVC065 35.6 26.4 69% 30.02 0.0
06 05:15 W 5 10.00 Mostly Cloudy BKN065 35.2 25.5 68% 32 30.02 0.0
06 04:55 NW 3 10.00 Mostly Cloudy BKN065 36.7 25.5 64% 30.02 0.0
06 04:35 NW 7 10.00 Overcast OVC065 38.1 25.5 61% 34 30.02 0.0
06 04:15 NW 6 10.00 Overcast OVC065 38.3 25.7 61% 34 30.02 0.0
06 03:55 NW 8 10.00 Overcast OVC065 38.3 26.1 61% 33 30.01 0.0
06 03:35 NW 7 10.00 Overcast OVC065 38.3 26.1 61% 34 30.01 0.0
06 03:15 NW 6 10.00 Overcast OVC065 38.7 25.9 60% 35 30 0.0
06 02:55 NW 6 10.00 Overcast OVC065 38.7 26.4 62% 35 30.01 0.0
06 02:35 NW 7 10.00 Overcast OVC065 38.8 26.8 62% 34 30.01 0.0
06 02:15 NW 5 10.00 Overcast OVC065 38.7 27 63% 36 30 0.0
06 01:55 NW 6 10.00 Overcast OVC065 39.2 26.8 61% 36 30.01 0.0
06 01:35 W 6 10.00 Overcast OVC065 39.2 27.1 62% 36 30.01 0.0
06 01:15 NW 3 10.00 Overcast OVC065 39.4 27 61% 30 0.0
06 00:55 NW 3 10.00 Overcast OVC075 39.6 26.6 46.6 39.6 60% 30 0.0
06 00:35 NW 3 10.00 Overcast OVC075 39.7 26.6 59% 30.01 0.0
Date Time (cdt) Wind (mph) Vis. (mi.) Weather Sky Cond. Air Dwpt Max. Min. Relative Humidity Wind Chill (°F) Heat Index (°F) altimeter (in) sea level (mb) 1 hr 3 hr 6 hr
6 hour
Temperature (ºF) Pressure Precipitation (in)